First Air AT72 at Cambridge Bay on Oct 10th 2012, temporary runway excursion and stoned propeller

Last Update: October 12, 2012 / 19:20:44 GMT/Zulu time

Bookmark this article
Incident Facts

Date of incident
Oct 10, 2012

Classification
Incident

Airline
First Air

Flight number
7F-852

Aircraft Registration
C-GRMZ

Aircraft Type
ATR ATR-72-200

ICAO Type Designator
AT72

A First Air Avion de Transport Regional ATR-72-200, registration C-GRMZ performing flight 7F-852 from Yellowknife,NT to Cambridge Bay,NU (Canada) with 17 people on board, landed on Cambridge Bay's gravel runway 31T, but during roll out veered sharply to the left and departed the runway surface taking a runway edge light out before the crew regained control and steered the aircraft back onto the runway. The aircraft subsequently taxied to the apron.

The Canadian TSB reported that all four blades of the left hand propeller were found with significant rock damage and need to be replaced. A preliminary inspection revealed no other damage to the aircraft.



Metars:
CYCB 102000Z 22018KT 15SM FEW007 BKN020 M04/M07 A2993 RMK SF1SC6 SLP139=
CYCB 101900Z 23016KT 15SM FEW007 BKN025 BKN150 M05/M08 A2998 RMK SF1SC2AC1 SLP155=
CYCB 101800Z 26013KT 15SM FEW007 FEW025 SCT150 BKN200 M06/M10 A3000 RMK SF0SC1AC1CI0 SLP162=
CYCB NIL=
CYCB 101600Z 30005KT 15SM FEW009 FEW025 BKN150 BKN200 M10/M12 A3006 RMK SF1SC1AC2CI1 SLP182=
CYCB 101500Z 33009KT 15SM FEW009 FEW025 BKN150 BKN200 M09/M13 A3007 RMK SF1SC1AC2CI1 SLP187=
CYCB 101400Z 32008KT 15SM FEW009 SCT023 BKN150 M09/M11 A3008 RMK SF1SC2AC1 SLP191=
CYCB 101300Z 32012KT 10SM -SN DRSN FEW011 BKN023 M08/M10 A3009 RMK SF1SC6 SLP192=
Aircraft Registration Data New!
Registration mark
C-GRMZ
Country of Registration
Canada
Date of Registration
HqAic e piinhkmgb Subscribe to unlock
Certification Basis
JAjbhjeAbqbe jebndkdmnjn eeAhdipmffngbqiijflgd Subscribe to unlock
TCDS Ident. No.
Manufacturer
Bombardier
Aircraft Model / Type
CL-600-2B16 (Series 604)
ICAO Aircraft Type
AT72
Year of Manufacture
Serial Number
Aircraft Address / Mode S Code (HEX)
Maximum Take off Mass (MTOM) [kg]
Engine Count
Engine Type
Main Owner
hcjdkqclklpmgghgqccb AqqhbiplAibdhghlhhdmmbgnljccjlhhmpinqj dpdeeignjblggimpcjkecpegfelncbilcllfApAAngmqgl Subscribe to unlock

Aircraft registration data reproduced and distributed with the permission of the Government of Canada.

Incident Facts

Date of incident
Oct 10, 2012

Classification
Incident

Airline
First Air

Flight number
7F-852

Aircraft Registration
C-GRMZ

Aircraft Type
ATR ATR-72-200

ICAO Type Designator
AT72

This article is published under license from Avherald.com. © of text by Avherald.com.
Article source

You can read 4 more free articles without a subscription.

Subscribe now and continue reading without any limits!

Are you a subscriber?
Login
Subscribe

Read unlimited articles and receive our daily update briefing. Gain better insights into what is happening in commercial aviation safety.

Free newsletter

Want to know more and stay ahead? Get our free weekly newsletter and join 4944 existing subscribers.

By subscribing, you accept our terms and conditions and confirm that you've read our privacy policy.

Send tip

Support AeroInside by sending a small tip amount.

Related articles

Newest articles

Subscribe today

Are you researching aviation incidents? Get access to AeroInside Insights, unlimited read access and receive the daily newsletter.

Pick your plan and subscribe

Partner

Blockaviation logo

A new way to document and demonstrate airworthiness compliance and aircraft value. Find out more.

Virtual Speech logo

ELITE Simulation Solutions is a leading global provider of Flight Simulation Training Devices, IFR training software as well as flight controls and related services. Find out more.

Get updates

Never miss an article from AeroInside. Subscribe to our free weekly newsletter and join 4944 existing subscribers.

By subscribing, you accept our terms and conditions and that you've read our privacy policy.

AeroInside Blog
Popular aircraft
Airbus A320
Boeing 737-800
Boeing 737-800 MAX
Popular airlines
American Airlines
United
Delta
Air Canada
Lufthansa
British Airways